createdAt,value
2023-05-10T00:00:29.301Z,74.40
2023-05-10T00:02:55.881Z,74.40
2023-05-10T00:05:22.477Z,74.50
2023-05-10T00:07:49.047Z,74.50
2023-05-10T00:10:16.063Z,74.80
2023-05-10T00:12:44.002Z,75.00
2023-05-10T00:15:13.182Z,75.00
2023-05-10T00:17:39.924Z,75.30
2023-05-10T00:20:11.246Z,75.30
2023-05-10T00:22:40.294Z,75.30
2023-05-10T00:25:08.066Z,75.30
2023-05-10T00:27:37.222Z,75.20
2023-05-10T00:30:04.192Z,75.20
2023-05-10T00:32:34.298Z,75.20
2023-05-10T00:35:00.926Z,75.40
2023-05-10T00:37:29.707Z,75.30
2023-05-10T00:39:56.728Z,75.40
2023-05-10T00:42:25.888Z,75.10
2023-05-10T00:44:54.516Z,74.80
2023-05-10T00:47:26.061Z,74.70
2023-05-10T00:49:56.446Z,74.50
2023-05-10T00:52:24.541Z,74.40
2023-05-10T00:54:58.433Z,74.70
2023-05-10T00:57:25.553Z,74.60
2023-05-10T00:59:54.808Z,74.60
2023-05-10T01:02:21.548Z,74.70
2023-05-10T01:04:50.946Z,74.70
2023-05-10T01:07:25.687Z,74.70
2023-05-10T01:09:52.433Z,74.60
2023-05-10T01:12:32.053Z,74.60
2023-05-10T01:14:58.869Z,74.80
2023-05-10T01:17:25.717Z,74.60
2023-05-10T01:19:52.479Z,74.60
2023-05-10T01:22:36.540Z,74.70
2023-05-10T01:25:27.469Z,75.40
2023-05-10T01:28:02.751Z,75.20
2023-05-10T01:31:06.789Z,75.10
2023-05-10T01:33:43.501Z,75.20
2023-05-10T01:36:26.811Z,74.70
2023-05-10T01:39:21.242Z,75.00
2023-05-10T01:41:55.414Z,75.40
2023-05-10T01:44:33.916Z,75.20
2023-05-10T01:47:28.691Z,75.10
2023-05-10T01:50:05.435Z,75.30
2023-05-10T01:52:39.259Z,75.10
2023-05-10T01:55:13.620Z,75.10
2023-05-10T01:57:43.194Z,75.10
2023-05-10T02:00:14.541Z,75.10
2023-05-10T02:02:49.891Z,75.10
2023-05-10T02:05:18.098Z,75.00
2023-05-10T02:07:45.795Z,75.00
2023-05-10T02:10:16.304Z,75.10
2023-05-10T02:12:46.834Z,75.10
2023-05-10T02:15:17.623Z,75.10
2023-05-10T02:17:48.621Z,75.10
2023-05-10T02:20:18.116Z,75.20
2023-05-10T02:22:49.881Z,75.30
2023-05-10T02:25:21.149Z,75.30
2023-05-10T02:27:53.091Z,75.30
2023-05-10T02:30:24.469Z,75.50
2023-05-10T02:32:53.989Z,75.40
2023-05-10T02:35:28.233Z,75.60
2023-05-10T02:37:55.871Z,75.70
2023-05-10T02:40:28.645Z,75.50
2023-05-10T02:43:03.480Z,75.50
2023-05-10T02:45:55.102Z,75.60
2023-05-10T02:48:21.807Z,75.90
2023-05-10T02:50:52.168Z,75.40
2023-05-10T02:53:44.007Z,75.30
2023-05-10T02:56:18.100Z,75.70
2023-05-10T02:58:44.872Z,75.30
2023-05-10T03:01:11.607Z,75.10
2023-05-10T03:03:47.530Z,75.20
2023-05-10T03:06:14.493Z,75.30
2023-05-10T03:08:41.154Z,75.30
2023-05-10T03:11:38.447Z,75.30
2023-05-10T03:14:10.134Z,75.70
2023-05-10T03:17:07.147Z,75.20
2023-05-10T03:19:44.844Z,75.70
2023-05-10T03:22:13.174Z,75.60
2023-05-10T03:24:44.139Z,75.40
2023-05-10T03:27:13.639Z,75.60
2023-05-10T03:29:40.836Z,75.50
2023-05-10T03:32:07.519Z,75.40
2023-05-10T03:34:43.496Z,75.50
2023-05-10T03:37:15.172Z,75.60
2023-05-10T03:39:42.285Z,75.50
2023-05-10T03:42:12.811Z,75.40
2023-05-10T03:44:41.637Z,75.40
2023-05-10T03:47:09.290Z,75.50
2023-05-10T03:49:38.145Z,75.50
2023-05-10T03:52:07.303Z,75.50
2023-05-10T03:54:34.552Z,75.80
2023-05-10T03:57:05.818Z,75.70
2023-05-10T03:59:34.925Z,75.60
2023-05-10T04:02:04.632Z,75.60
2023-05-10T04:04:31.284Z,75.70
2023-05-10T04:06:58.698Z,75.50
2023-05-10T04:09:26.501Z,75.50
2023-05-10T04:11:55.670Z,75.40
2023-05-10T04:14:27.884Z,75.30
2023-05-10T04:16:54.513Z,75.10
2023-05-10T04:19:21.179Z,75.00
2023-05-10T04:21:57.104Z,75.00
2023-05-10T04:24:35.600Z,75.00
2023-05-10T04:27:04.617Z,75.00
2023-05-10T04:29:36.533Z,74.90
2023-05-10T04:32:05.364Z,74.90
2023-05-10T04:34:32.323Z,74.90
2023-05-10T04:37:04.212Z,74.80
2023-05-10T04:39:32.230Z,74.80
2023-05-10T04:42:01.793Z,74.80
2023-05-10T04:44:28.655Z,74.80
2023-05-10T04:46:55.249Z,74.80
2023-05-10T04:49:22.595Z,74.90
2023-05-10T04:51:49.141Z,74.90
2023-05-10T04:54:15.869Z,74.90
2023-05-10T04:56:42.423Z,74.90
2023-05-10T04:59:09.105Z,74.80
2023-05-10T05:01:35.738Z,74.70
2023-05-10T05:04:02.565Z,74.70
2023-05-10T05:06:29.196Z,74.70
2023-05-10T05:08:55.806Z,74.80
2023-05-10T05:11:22.361Z,74.70
2023-05-10T05:13:48.946Z,74.90
2023-05-10T05:16:15.903Z,75.10
2023-05-10T05:18:42.484Z,75.10
2023-05-10T05:21:19.829Z,75.10
2023-05-10T05:23:46.960Z,75.60
2023-05-10T05:26:13.614Z,75.40
2023-05-10T05:28:40.557Z,75.40
2023-05-10T05:31:10.977Z,75.30
2023-05-10T05:33:38.054Z,75.40
2023-05-10T05:36:06.275Z,75.30
2023-05-10T05:38:33.199Z,75.20
2023-05-10T05:40:59.761Z,75.30
2023-05-10T05:43:26.466Z,75.40
2023-05-10T05:45:54.783Z,75.50
2023-05-10T05:48:21.778Z,75.60
2023-05-10T05:50:48.431Z,76.60
2023-05-10T05:53:15.299Z,76.00
2023-05-10T05:55:51.278Z,76.10
2023-05-10T05:58:17.840Z,75.90
2023-05-10T06:00:44.525Z,76.00
2023-05-10T06:03:11.464Z,76.00
2023-05-10T06:05:38.188Z,76.00
2023-05-10T06:08:04.994Z,76.00
2023-05-10T06:10:31.589Z,76.10
2023-05-10T06:12:58.220Z,76.00
2023-05-10T06:15:24.845Z,76.00
2023-05-10T06:17:51.888Z,75.90
2023-05-10T06:20:18.670Z,75.80
2023-05-10T06:22:45.407Z,75.70
2023-05-10T06:25:12.361Z,75.70
2023-05-10T06:27:38.932Z,75.80
2023-05-10T06:30:12.997Z,76.00
2023-05-10T06:32:42.396Z,76.30
2023-05-10T06:35:09.539Z,76.20
2023-05-10T06:37:36.081Z,76.10
2023-05-10T06:40:02.726Z,76.10
2023-05-10T06:42:29.310Z,76.10
2023-05-10T06:44:55.939Z,76.20
2023-05-10T06:47:22.943Z,76.00
2023-05-10T06:49:49.538Z,75.80
2023-05-10T06:52:16.321Z,75.70
2023-05-10T06:54:43.028Z,75.80
2023-05-10T06:57:23.324Z,75.70
2023-05-10T06:59:57.070Z,75.60
2023-05-10T07:02:23.819Z,75.60
2023-05-10T07:04:51.295Z,75.40
2023-05-10T07:07:18.084Z,75.30
2023-05-10T07:09:46.905Z,75.30
2023-05-10T07:12:15.354Z,74.90
2023-05-10T07:14:43.040Z,75.00
2023-05-10T07:17:09.877Z,74.80
2023-05-10T07:19:36.833Z,74.70
2023-05-10T07:22:03.640Z,74.80
2023-05-10T07:24:32.015Z,74.40
2023-05-10T07:26:58.594Z,74.20
2023-05-10T07:29:25.190Z,73.90
2023-05-10T07:31:51.754Z,74.00
2023-05-10T07:34:18.365Z,74.20
2023-05-10T07:36:45.032Z,74.10
2023-05-10T07:39:16.189Z,74.00
2023-05-10T07:41:45.131Z,74.00
2023-05-10T07:44:11.659Z,74.40
2023-05-10T07:46:38.377Z,74.10
2023-05-10T07:49:05.513Z,74.40
2023-05-10T07:51:32.612Z,74.00
2023-05-10T07:53:59.213Z,73.50
2023-05-10T07:56:33.544Z,72.70
2023-05-10T07:59:01.051Z,71.60
2023-05-10T08:01:31.067Z,72.10
2023-05-10T08:03:57.671Z,72.10
2023-05-10T08:06:24.449Z,72.00
2023-05-10T08:08:51.496Z,71.50
2023-05-10T08:11:18.559Z,71.00
2023-05-10T08:13:49.746Z,70.70
2023-05-10T08:16:17.576Z,69.90
2023-05-10T08:18:46.196Z,70.10
2023-05-10T08:21:12.882Z,70.10
2023-05-10T08:23:39.438Z,69.90
2023-05-10T08:26:06.499Z,70.00
2023-05-10T08:28:33.099Z,70.00
2023-05-10T08:30:59.716Z,69.90
2023-05-10T08:33:26.757Z,69.80
2023-05-10T08:35:53.387Z,69.40
2023-05-10T08:38:20.032Z,69.20
2023-05-10T08:40:48.081Z,69.20
2023-05-10T08:43:18.627Z,69.00
2023-05-10T08:45:48.957Z,69.10
2023-05-10T08:48:17.341Z,68.80
2023-05-10T08:50:45.888Z,68.80
2023-05-10T08:53:15.492Z,68.70
2023-05-10T08:55:43.569Z,68.90
2023-05-10T08:58:10.518Z,69.00
2023-05-10T09:00:38.471Z,69.50
2023-05-10T09:03:06.598Z,69.80
2023-05-10T09:05:33.493Z,69.80
2023-05-10T09:08:01.473Z,69.70
2023-05-10T09:10:29.034Z,69.90
2023-05-10T09:12:59.332Z,70.00
2023-05-10T09:15:26.519Z,70.70
2023-05-10T09:17:53.299Z,70.80
2023-05-10T09:20:20.239Z,71.00
2023-05-10T09:22:46.946Z,70.70
2023-05-10T09:25:16.468Z,70.60
2023-05-10T09:27:47.175Z,70.40
2023-05-10T09:30:23.793Z,70.20
2023-05-10T09:32:51.405Z,70.50
2023-05-10T09:35:20.034Z,70.00
2023-05-10T09:37:49.300Z,69.80
2023-05-10T09:40:21.359Z,69.70
2023-05-10T09:42:56.702Z,70.20
2023-05-10T09:45:25.598Z,70.50
2023-05-10T09:47:52.797Z,70.80
2023-05-10T09:50:21.379Z,70.70
2023-05-10T09:52:49.119Z,70.60
2023-05-10T09:55:19.049Z,70.50
2023-05-10T09:57:46.835Z,70.50
2023-05-10T10:00:18.777Z,70.50
2023-05-10T10:02:56.296Z,70.40
2023-05-10T10:05:29.714Z,70.50
2023-05-10T10:07:58.425Z,70.50
2023-05-10T10:10:28.962Z,70.60
2023-05-10T10:12:56.634Z,70.20
2023-05-10T10:15:24.018Z,70.10
2023-05-10T10:17:51.892Z,70.00
2023-05-10T10:20:23.160Z,70.00
2023-05-10T10:22:50.149Z,69.90
2023-05-10T10:25:18.534Z,69.50
2023-05-10T10:27:54.243Z,69.60
2023-05-10T10:30:37.237Z,69.70
2023-05-10T10:33:32.108Z,69.60
2023-05-10T10:36:03.473Z,69.30
2023-05-10T10:38:48.419Z,69.10
2023-05-10T10:41:30.083Z,69.00
2023-05-10T10:44:25.955Z,68.60
2023-05-10T10:47:01.824Z,68.50
2023-05-10T10:49:28.895Z,68.80
2023-05-10T10:52:34.699Z,68.80
2023-05-10T10:55:19.086Z,68.60
2023-05-10T10:57:47.065Z,68.60
2023-05-10T11:00:29.218Z,68.30
2023-05-10T11:03:19.580Z,68.30
2023-05-10T11:05:47.696Z,68.30
2023-05-10T11:08:31.383Z,68.30
2023-05-10T11:11:01.146Z,67.90
2023-05-10T11:13:29.063Z,67.70
2023-05-10T11:15:57.871Z,68.00
2023-05-10T11:18:30.152Z,67.90
2023-05-10T11:21:11.277Z,67.80
2023-05-10T11:23:40.743Z,68.20
2023-05-10T11:26:11.858Z,67.40
2023-05-10T11:28:43.577Z,67.10
2023-05-10T11:31:10.704Z,66.30
2023-05-10T11:33:44.822Z,66.30
2023-05-10T11:36:19.882Z,65.90
2023-05-10T11:38:47.823Z,65.70
2023-05-10T11:41:16.338Z,65.60
2023-05-10T11:43:43.565Z,66.00
2023-05-10T11:46:14.121Z,65.90
2023-05-10T11:48:41.977Z,66.00
2023-05-10T11:51:12.165Z,66.40
2023-05-10T11:53:39.100Z,66.40
2023-05-10T11:56:10.167Z,67.10
2023-05-10T11:58:38.701Z,67.00
2023-05-10T12:01:07.291Z,67.00
2023-05-10T12:03:34.988Z,67.50
2023-05-10T12:06:02.878Z,66.90
2023-05-10T12:08:30.896Z,67.30
2023-05-10T12:11:11.203Z,67.00
2023-05-10T12:13:41.974Z,66.60
2023-05-10T12:16:26.545Z,64.80
2023-05-10T12:18:57.078Z,63.00
2023-05-10T12:21:24.032Z,63.20
2023-05-10T12:23:53.776Z,62.80
2023-05-10T12:26:29.482Z,62.60
2023-05-10T12:28:56.528Z,60.80
2023-05-10T12:31:23.372Z,61.20
2023-05-10T12:33:50.326Z,60.70
2023-05-10T12:36:18.769Z,60.50
2023-05-10T12:38:49.615Z,59.50
2023-05-10T12:41:18.167Z,59.00
2023-05-10T12:43:46.260Z,58.60
2023-05-10T12:46:17.967Z,57.80
2023-05-10T12:48:46.300Z,57.60
2023-05-10T12:51:16.116Z,58.20
2023-05-10T12:53:45.146Z,57.50
2023-05-10T12:56:12.716Z,57.30
2023-05-10T12:58:39.562Z,57.60
2023-05-10T13:01:06.579Z,57.00
2023-05-10T13:03:33.383Z,57.10
2023-05-10T13:06:00.035Z,57.30
2023-05-10T13:08:26.718Z,56.50
2023-05-10T13:10:53.366Z,56.40
2023-05-10T13:13:19.965Z,55.60
2023-05-10T13:15:46.593Z,55.80
2023-05-10T13:18:13.277Z,56.00
2023-05-10T13:20:39.937Z,55.40
2023-05-10T13:23:06.670Z,55.40
2023-05-10T13:25:35.114Z,55.60
2023-05-10T13:28:01.768Z,55.90
2023-05-10T13:30:29.629Z,55.40
2023-05-10T13:32:56.261Z,55.80
2023-05-10T13:35:23.062Z,55.80
2023-05-10T13:37:51.967Z,55.30
2023-05-10T13:40:18.849Z,55.80
2023-05-10T13:42:45.625Z,55.60
2023-05-10T13:45:13.236Z,56.00
2023-05-10T13:47:40.074Z,55.70
2023-05-10T13:50:07.473Z,55.30
2023-05-10T13:52:34.383Z,54.80
2023-05-10T13:55:00.930Z,54.70
2023-05-10T13:57:31.097Z,53.70
2023-05-10T13:59:58.182Z,53.80
2023-05-10T14:02:25.502Z,54.30
2023-05-10T14:04:52.340Z,54.20
2023-05-10T14:07:19.295Z,53.50
2023-05-10T14:09:45.910Z,53.40
2023-05-10T14:12:12.509Z,53.00
2023-05-10T14:14:39.163Z,52.90
2023-05-10T14:17:06.126Z,52.40
2023-05-10T14:19:34.865Z,52.30
2023-05-10T14:22:01.467Z,52.50
2023-05-10T14:24:28.147Z,52.40
2023-05-10T14:26:54.909Z,52.70
2023-05-10T14:29:22.152Z,53.30
2023-05-10T14:31:49.004Z,52.60
2023-05-10T14:34:15.726Z,52.60
2023-05-10T14:36:42.373Z,52.40
2023-05-10T14:39:10.791Z,52.30
2023-05-10T14:41:37.981Z,52.30
2023-05-10T14:44:04.593Z,52.30
2023-05-10T14:46:31.628Z,52.60
2023-05-10T14:48:58.243Z,52.70
2023-05-10T14:51:24.861Z,53.00
2023-05-10T14:53:51.448Z,53.20
2023-05-10T14:56:18.142Z,53.00
2023-05-10T14:58:44.833Z,53.20
2023-05-10T15:01:12.140Z,53.60
2023-05-10T15:03:39.154Z,53.70
2023-05-10T15:06:06.662Z,53.70
2023-05-10T15:08:33.254Z,54.00
2023-05-10T15:10:59.873Z,54.00
2023-05-10T15:13:26.712Z,53.40
2023-05-10T15:15:53.382Z,51.70
2023-05-10T15:18:20.077Z,50.70
2023-05-10T15:20:46.678Z,50.50
2023-05-10T15:23:13.396Z,49.30
2023-05-10T15:25:40.310Z,50.00
2023-05-10T15:28:06.950Z,48.70
2023-05-10T15:30:33.560Z,48.70
2023-05-10T15:33:00.286Z,48.10
2023-05-10T15:35:27.713Z,48.20
2023-05-10T15:37:54.275Z,48.40
2023-05-10T15:40:20.889Z,48.30
2023-05-10T15:42:47.557Z,48.50
2023-05-10T15:45:14.254Z,48.40
2023-05-10T15:47:41.084Z,48.40
2023-05-10T15:50:08.289Z,48.80
2023-05-10T15:52:35.970Z,49.10
2023-05-10T15:55:03.426Z,49.70
2023-05-10T15:57:30.418Z,50.50
2023-05-10T15:59:57.496Z,50.50
2023-05-10T16:02:24.246Z,51.00
2023-05-10T16:04:51.518Z,51.20
2023-05-10T16:07:18.167Z,51.70
2023-05-10T16:09:44.865Z,52.00
2023-05-10T16:12:14.427Z,52.50
2023-05-10T16:14:41.061Z,52.90
2023-05-10T16:17:09.152Z,53.50
2023-05-10T16:19:42.602Z,54.10
2023-05-10T16:22:09.319Z,54.70
2023-05-10T16:24:38.026Z,55.10
2023-05-10T16:27:07.343Z,55.60
2023-05-10T16:29:36.496Z,56.30
2023-05-10T16:32:08.098Z,56.70
2023-05-10T16:34:39.701Z,57.40
2023-05-10T16:37:06.273Z,56.90
2023-05-10T16:39:32.881Z,57.60
2023-05-10T16:41:59.487Z,57.80
2023-05-10T16:44:28.574Z,58.70
2023-05-10T16:46:55.520Z,58.70
2023-05-10T16:49:23.666Z,59.00
2023-05-10T16:51:54.238Z,59.20
2023-05-10T16:54:21.847Z,59.30
2023-05-10T16:56:48.457Z,59.70
2023-05-10T16:59:15.096Z,60.10
2023-05-10T17:01:55.976Z,60.30
2023-05-10T17:04:23.184Z,60.30
2023-05-10T17:06:53.378Z,60.50
2023-05-10T17:09:20.530Z,60.70
2023-05-10T17:11:47.080Z,60.70
2023-05-10T17:14:14.367Z,60.80
2023-05-10T17:16:43.169Z,60.80
2023-05-10T17:19:13.577Z,61.30
2023-05-10T17:21:46.231Z,61.40
2023-05-10T17:24:15.800Z,61.20
2023-05-10T17:26:44.797Z,61.20
2023-05-10T17:29:13.834Z,62.10
2023-05-10T17:31:45.320Z,61.40
2023-05-10T17:34:11.926Z,61.60
2023-05-10T17:36:56.082Z,61.60
2023-05-10T17:39:23.930Z,61.90
2023-05-10T17:41:56.464Z,61.90
2023-05-10T17:44:28.231Z,62.00
2023-05-10T17:47:04.900Z,61.80
2023-05-10T17:49:33.701Z,61.70
2023-05-10T17:52:00.260Z,61.80
2023-05-10T17:54:29.566Z,61.90
2023-05-10T17:56:57.879Z,61.90
2023-05-10T17:59:24.503Z,61.90
2023-05-10T18:01:56.704Z,61.90
2023-05-10T18:04:25.728Z,62.10
2023-05-10T18:07:00.589Z,61.60
2023-05-10T18:09:28.116Z,61.70
2023-05-10T18:11:57.352Z,61.80
2023-05-10T18:14:39.952Z,61.90
2023-05-10T18:17:17.871Z,62.20
2023-05-10T18:19:44.495Z,61.90
2023-05-10T18:22:11.281Z,61.90
2023-05-10T18:24:39.476Z,61.90
2023-05-10T18:27:12.656Z,62.00
2023-05-10T18:29:42.180Z,62.00
2023-05-10T18:32:14.455Z,61.70
2023-05-10T18:34:41.080Z,61.70
2023-05-10T18:37:11.250Z,61.60
2023-05-10T18:39:40.624Z,61.40
2023-05-10T18:42:10.165Z,61.60
2023-05-10T18:44:39.842Z,61.60
2023-05-10T18:47:06.576Z,61.80
2023-05-10T18:49:33.128Z,62.00
2023-05-10T18:52:02.224Z,62.20
2023-05-10T18:54:29.675Z,62.30
2023-05-10T18:56:59.418Z,62.30
2023-05-10T18:59:30.530Z,62.60
2023-05-10T19:01:57.698Z,62.90
2023-05-10T19:04:31.858Z,62.80
2023-05-10T19:06:59.503Z,62.70
2023-05-10T19:09:26.953Z,62.80
2023-05-10T19:11:53.590Z,63.00
2023-05-10T19:14:22.573Z,63.10
2023-05-10T19:17:01.314Z,63.30
2023-05-10T19:19:31.065Z,63.50
2023-05-10T19:22:03.622Z,63.30
2023-05-10T19:24:33.755Z,63.60
2023-05-10T19:27:03.590Z,63.90
2023-05-10T19:29:32.614Z,63.80
2023-05-10T19:32:00.358Z,64.10
2023-05-10T19:34:31.771Z,64.20
2023-05-10T19:36:58.334Z,64.40
2023-05-10T19:39:24.995Z,64.50
2023-05-10T19:41:51.657Z,64.50
2023-05-10T19:44:18.328Z,64.70
2023-05-10T19:46:45.535Z,64.80
2023-05-10T19:49:12.157Z,64.90
2023-05-10T19:51:39.657Z,64.90
2023-05-10T19:54:06.259Z,65.00
2023-05-10T19:56:35.034Z,65.10
2023-05-10T19:59:03.822Z,65.10
2023-05-10T20:01:32.515Z,65.10
2023-05-10T20:04:01.980Z,65.20
2023-05-10T20:06:28.776Z,65.30
2023-05-10T20:08:58.266Z,65.20
2023-05-10T20:11:25.839Z,65.20
2023-05-10T20:14:01.750Z,65.20
2023-05-10T20:16:31.409Z,65.20
2023-05-10T20:18:58.249Z,65.10
2023-05-10T20:21:33.351Z,65.00
2023-05-10T20:24:07.547Z,64.90
2023-05-10T20:26:38.127Z,64.70
2023-05-10T20:29:06.009Z,64.50
2023-05-10T20:31:35.132Z,64.40
2023-05-10T20:34:04.384Z,64.60
2023-05-10T20:36:33.234Z,64.50
2023-05-10T20:39:02.490Z,64.40
2023-05-10T20:41:36.609Z,64.50
2023-05-10T20:44:07.707Z,64.90
2023-05-10T20:46:37.574Z,64.90
2023-05-10T20:49:04.582Z,65.10
2023-05-10T20:51:44.686Z,65.20
2023-05-10T20:54:11.265Z,65.10
2023-05-10T20:56:40.469Z,65.20
2023-05-10T20:59:07.057Z,65.30
2023-05-10T21:01:36.332Z,65.40
2023-05-10T21:04:03.490Z,65.80
2023-05-10T21:06:32.716Z,66.20
2023-05-10T21:08:59.308Z,66.70
2023-05-10T21:11:26.016Z,66.80
2023-05-10T21:13:52.714Z,67.00
2023-05-10T21:16:20.042Z,67.10
2023-05-10T21:18:52.979Z,67.20
2023-05-10T21:21:19.613Z,67.30
2023-05-10T21:23:46.765Z,67.40
2023-05-10T21:26:13.674Z,67.40
2023-05-10T21:28:44.006Z,67.40
2023-05-10T21:31:15.474Z,67.40
2023-05-10T21:33:42.173Z,67.40
2023-05-10T21:36:09.373Z,67.30
2023-05-10T21:38:40.432Z,67.40
2023-05-10T21:41:10.539Z,67.40
2023-05-10T21:43:37.147Z,67.60
2023-05-10T21:46:10.382Z,67.70
2023-05-10T21:48:36.996Z,67.80
2023-05-10T21:51:03.646Z,67.60
2023-05-10T21:53:30.343Z,67.80
2023-05-10T21:56:01.191Z,67.70
2023-05-10T21:58:27.755Z,67.90
2023-05-10T22:00:59.041Z,67.70
2023-05-10T22:03:26.245Z,67.80
2023-05-10T22:05:52.982Z,67.80
2023-05-10T22:08:19.620Z,67.90
2023-05-10T22:10:46.195Z,67.90
2023-05-10T22:13:12.839Z,67.90
2023-05-10T22:15:39.447Z,68.00
2023-05-10T22:18:08.480Z,68.00
2023-05-10T22:20:35.032Z,67.90
2023-05-10T22:23:04.648Z,67.80
2023-05-10T22:25:33.666Z,67.90
2023-05-10T22:28:03.874Z,67.90
2023-05-10T22:30:33.256Z,67.90
2023-05-10T22:33:05.223Z,68.00
2023-05-10T22:35:31.890Z,68.00
2023-05-10T22:38:01.070Z,68.00
2023-05-10T22:40:29.470Z,68.00
2023-05-10T22:42:56.010Z,68.10
2023-05-10T22:45:22.601Z,68.20
2023-05-10T22:47:50.447Z,68.30
2023-05-10T22:50:19.449Z,68.40
2023-05-10T22:52:46.259Z,68.50
2023-05-10T22:55:12.867Z,68.50
2023-05-10T22:57:41.801Z,68.50
2023-05-10T23:00:11.504Z,68.60
2023-05-10T23:02:41.126Z,68.60
2023-05-10T23:05:17.454Z,68.70
2023-05-10T23:07:44.044Z,68.60
2023-05-10T23:10:13.962Z,68.50
2023-05-10T23:12:40.552Z,68.60
2023-05-10T23:15:07.520Z,68.50
2023-05-10T23:17:34.197Z,68.60
2023-05-10T23:20:01.006Z,68.60
2023-05-10T23:22:29.893Z,68.70
2023-05-10T23:24:58.057Z,68.70
2023-05-10T23:27:30.850Z,68.80
2023-05-10T23:29:57.983Z,68.90
2023-05-10T23:32:33.533Z,68.80
2023-05-10T23:35:03.965Z,68.80
2023-05-10T23:37:30.513Z,68.90
2023-05-10T23:39:57.203Z,69.00
2023-05-10T23:42:23.759Z,69.10
2023-05-10T23:44:55.605Z,69.30
2023-05-10T23:47:22.151Z,69.50
2023-05-10T23:49:50.053Z,69.30
2023-05-10T23:52:24.922Z,69.50
2023-05-10T23:54:55.937Z,69.60
2023-05-10T23:57:24.891Z,69.70
2023-05-10T23:59:53.807Z,69.80
